createdAt,value
2024-03-02T00:00:14.194Z,55.71
2024-03-02T00:02:50.631Z,55.01
2024-03-02T00:05:19.152Z,55.64
2024-03-02T00:07:49.578Z,54.79
2024-03-02T00:10:17.858Z,54.13
2024-03-02T00:12:44.275Z,54.13
2024-03-02T00:15:44.710Z,53.83
2024-03-02T00:18:16.899Z,54.61
2024-03-02T00:20:43.447Z,54.31
2024-03-02T00:23:15.284Z,55.04
2024-03-02T00:25:44.215Z,54.90
2024-03-02T00:28:20.202Z,53.58
2024-03-02T00:30:59.978Z,53.51
2024-03-02T00:33:29.191Z,53.33
2024-03-02T00:35:55.986Z,53.50
2024-03-02T00:38:24.854Z,53.08
2024-03-02T00:40:51.238Z,52.79
2024-03-02T00:43:36.130Z,52.98
2024-03-02T00:46:02.728Z,52.43
2024-03-02T00:48:32.433Z,53.30
2024-03-02T00:50:58.835Z,53.78
2024-03-02T00:53:27.187Z,53.52
2024-03-02T00:55:54.009Z,53.65
2024-03-02T00:58:20.357Z,53.15
2024-03-02T01:00:46.937Z,53.67
2024-03-02T01:03:13.823Z,53.71
2024-03-02T01:05:44.439Z,53.30
2024-03-02T01:08:11.536Z,53.52
2024-03-02T01:10:38.005Z,53.41
2024-03-02T01:13:04.691Z,53.61
2024-03-02T01:15:31.189Z,53.33
2024-03-02T01:17:57.615Z,53.63
2024-03-02T01:20:23.966Z,53.57
2024-03-02T01:22:50.345Z,53.17
2024-03-02T01:25:16.709Z,53.48
2024-03-02T01:27:43.121Z,53.06
2024-03-02T01:30:10.053Z,52.86
2024-03-02T01:32:36.448Z,52.68
2024-03-02T01:35:02.812Z,52.79
2024-03-02T01:37:29.219Z,52.14
2024-03-02T01:39:55.592Z,52.72
2024-03-02T01:42:21.996Z,52.64
2024-03-02T01:44:48.513Z,52.56
2024-03-02T01:47:14.937Z,53.32
2024-03-02T01:49:42.070Z,52.40
2024-03-02T01:52:08.627Z,52.69
2024-03-02T01:54:35.605Z,52.25
2024-03-02T01:57:02.035Z,52.86
2024-03-02T01:59:28.588Z,52.30
2024-03-02T02:01:54.952Z,52.73
2024-03-02T02:04:28.032Z,52.70
2024-03-02T02:06:55.102Z,53.14
2024-03-02T02:09:21.620Z,52.92
2024-03-02T02:11:48.127Z,52.97
2024-03-02T02:14:14.547Z,53.33
2024-03-02T02:16:40.950Z,53.15
2024-03-02T02:19:07.346Z,52.72
2024-03-02T02:21:33.747Z,52.31
2024-03-02T02:24:00.219Z,52.16
2024-03-02T02:26:26.573Z,53.52
2024-03-02T02:28:52.931Z,52.73
2024-03-02T02:31:19.340Z,52.66
2024-03-02T02:33:45.797Z,53.11
2024-03-02T02:36:12.273Z,53.20
2024-03-02T02:38:41.550Z,53.03
2024-03-02T02:41:08.189Z,52.80
2024-03-02T02:43:34.580Z,53.81
2024-03-02T02:46:00.986Z,53.33
2024-03-02T02:48:27.376Z,53.16
2024-03-02T02:50:53.766Z,53.27
2024-03-02T02:53:20.320Z,54.79
2024-03-02T02:55:47.748Z,53.86
2024-03-02T02:58:14.291Z,54.17
2024-03-02T03:00:41.253Z,53.89
2024-03-02T03:03:07.658Z,53.60
2024-03-02T03:05:34.530Z,53.80
2024-03-02T03:08:00.884Z,53.55
2024-03-02T03:10:28.730Z,54.79
2024-03-02T03:12:57.292Z,53.77
2024-03-02T03:15:24.114Z,54.12
2024-03-02T03:17:51.851Z,53.99
2024-03-02T03:20:18.313Z,54.48
2024-03-02T03:22:45.115Z,54.54
2024-03-02T03:25:11.532Z,54.66
2024-03-02T03:27:38.095Z,54.06
2024-03-02T03:30:05.129Z,53.83
2024-03-02T03:32:31.638Z,53.70
2024-03-02T03:34:58.041Z,54.37
2024-03-02T03:37:25.139Z,54.57
2024-03-02T03:39:51.691Z,53.86
2024-03-02T03:42:18.215Z,53.69
2024-03-02T03:44:44.622Z,52.98
2024-03-02T03:47:11.071Z,53.49
2024-03-02T03:49:37.453Z,54.36
2024-03-02T03:52:05.063Z,53.99
2024-03-02T03:54:31.441Z,53.51
2024-03-02T03:56:57.845Z,52.91
2024-03-02T03:59:24.897Z,54.41
2024-03-02T04:01:51.429Z,54.87
2024-03-02T04:04:18.247Z,54.56
2024-03-02T04:06:45.214Z,54.69
2024-03-02T04:09:11.604Z,54.31
2024-03-02T04:11:38.034Z,54.31
2024-03-02T04:14:04.679Z,54.46
2024-03-02T04:16:31.134Z,54.64
2024-03-02T04:18:57.819Z,54.56
2024-03-02T04:21:24.303Z,54.18
2024-03-02T04:23:50.693Z,54.59
2024-03-02T04:26:20.818Z,54.44
2024-03-02T04:28:47.605Z,54.83
2024-03-02T04:31:14.012Z,54.19
2024-03-02T04:33:40.380Z,54.54
2024-03-02T04:36:09.602Z,54.81
2024-03-02T04:38:36.476Z,55.10
2024-03-02T04:41:02.948Z,55.91
2024-03-02T04:43:29.388Z,55.57
2024-03-02T04:45:55.760Z,55.24
2024-03-02T04:48:23.224Z,55.20
2024-03-02T04:50:49.594Z,55.13
2024-03-02T04:53:16.000Z,54.88
2024-03-02T04:55:42.398Z,55.44
2024-03-02T04:58:09.080Z,54.78
2024-03-02T05:00:36.440Z,55.32
2024-03-02T05:03:03.730Z,55.38
2024-03-02T05:05:30.134Z,55.15
2024-03-02T05:07:56.502Z,56.26
2024-03-02T05:10:23.107Z,55.75
2024-03-02T05:13:00.194Z,56.29
2024-03-02T05:15:27.243Z,55.71
2024-03-02T05:17:54.457Z,56.22
2024-03-02T05:20:20.992Z,55.69
2024-03-02T05:22:48.174Z,55.75
2024-03-02T05:25:14.567Z,55.34
2024-03-02T05:27:41.087Z,54.82
2024-03-02T05:30:08.379Z,55.21
2024-03-02T05:32:35.250Z,55.13
2024-03-02T05:35:01.715Z,55.87
2024-03-02T05:37:28.081Z,55.95
2024-03-02T05:39:54.740Z,56.37
2024-03-02T05:42:21.164Z,56.14
2024-03-02T05:44:47.711Z,56.19
2024-03-02T05:47:14.565Z,56.26
2024-03-02T05:49:40.955Z,56.61
2024-03-02T05:52:08.006Z,56.82
2024-03-02T05:54:34.480Z,56.18
2024-03-02T05:57:17.880Z,56.49
2024-03-02T05:59:47.488Z,56.82
2024-03-02T06:02:14.126Z,57.16
2024-03-02T06:04:40.525Z,56.60
2024-03-02T06:07:07.214Z,56.55
2024-03-02T06:09:33.701Z,56.31
2024-03-02T06:12:00.111Z,57.44
2024-03-02T06:14:26.505Z,55.82
2024-03-02T06:16:52.869Z,55.92
2024-03-02T06:19:19.234Z,55.73
2024-03-02T06:21:45.626Z,56.10
2024-03-02T06:24:14.446Z,55.49
2024-03-02T06:26:41.100Z,55.37
2024-03-02T06:29:08.333Z,55.60
2024-03-02T06:31:34.813Z,55.87
2024-03-02T06:34:01.204Z,56.75
2024-03-02T06:36:27.700Z,56.50
2024-03-02T06:38:54.095Z,56.01
2024-03-02T06:41:20.469Z,55.65
2024-03-02T06:43:46.877Z,56.25
2024-03-02T06:46:15.812Z,55.78
2024-03-02T06:48:42.362Z,55.05
2024-03-02T06:51:08.785Z,55.27
2024-03-02T06:53:37.549Z,54.96
2024-03-02T06:56:04.162Z,55.20
2024-03-02T06:58:30.629Z,54.85
2024-03-02T07:00:57.166Z,55.52
2024-03-02T07:03:23.662Z,54.32
2024-03-02T07:05:50.120Z,55.29
2024-03-02T07:08:16.699Z,54.86
2024-03-02T07:10:43.109Z,54.17
2024-03-02T07:13:09.674Z,54.89
2024-03-02T07:16:11.256Z,55.46
2024-03-02T07:18:42.891Z,55.94
2024-03-02T07:21:09.400Z,55.88
2024-03-02T07:23:36.260Z,55.30
2024-03-02T07:28:33.308Z,53.99
2024-03-02T07:31:04.094Z,53.85
2024-03-02T07:33:30.531Z,54.13
2024-03-02T07:35:57.504Z,53.81
2024-03-02T07:38:24.511Z,53.35
2024-03-02T07:40:54.276Z,53.47
2024-03-02T07:43:21.416Z,53.46
2024-03-02T07:45:48.600Z,53.49
2024-03-02T07:48:15.655Z,53.96
2024-03-02T07:50:42.563Z,55.62
2024-03-02T07:53:09.432Z,54.36
2024-03-02T07:55:35.965Z,52.60
2024-03-02T07:58:02.751Z,51.62
2024-03-02T08:00:29.504Z,51.54
2024-03-02T08:02:56.932Z,52.24
2024-03-02T08:05:23.503Z,51.45
2024-03-02T08:07:53.601Z,51.46
2024-03-02T08:10:20.551Z,51.64
2024-03-02T08:12:46.955Z,51.52
2024-03-02T08:15:15.997Z,51.20
2024-03-02T08:17:50.698Z,51.81
2024-03-02T08:20:17.265Z,51.64
2024-03-02T08:22:43.780Z,51.46
2024-03-02T08:25:10.690Z,51.81
2024-03-02T08:27:37.525Z,50.63
2024-03-02T08:30:07.477Z,50.54
2024-03-02T08:32:34.103Z,51.20
2024-03-02T08:35:00.516Z,51.03
2024-03-02T08:37:27.757Z,50.93
2024-03-02T08:39:54.295Z,51.18
2024-03-02T08:42:20.868Z,51.02
2024-03-02T08:44:47.396Z,51.12
2024-03-02T08:47:14.480Z,51.14
2024-03-02T08:49:40.899Z,50.88
2024-03-02T08:52:07.405Z,50.19
2024-03-02T08:54:35.185Z,49.54
2024-03-02T08:57:01.673Z,49.15
2024-03-02T08:59:28.940Z,49.35
2024-03-02T09:01:55.586Z,49.74
2024-03-02T09:04:24.609Z,49.71
2024-03-02T09:06:52.559Z,49.32
2024-03-02T09:09:19.028Z,48.71
2024-03-02T09:11:47.403Z,48.56
2024-03-02T09:14:15.940Z,49.06
2024-03-02T09:16:42.361Z,49.03
2024-03-02T09:19:08.981Z,49.22
2024-03-02T09:21:35.696Z,47.83
2024-03-02T09:24:03.598Z,48.34
2024-03-02T09:26:30.181Z,48.57
2024-03-02T09:28:56.641Z,47.38
2024-03-02T09:31:23.070Z,47.27
2024-03-02T09:33:49.555Z,47.54
2024-03-02T09:36:20.562Z,47.78
2024-03-02T09:38:47.187Z,47.81
2024-03-02T09:41:14.308Z,48.13
2024-03-02T09:43:41.538Z,48.26
2024-03-02T09:46:11.767Z,47.90
2024-03-02T09:48:38.818Z,46.67
2024-03-02T09:51:06.138Z,45.92
2024-03-02T09:53:34.490Z,45.62
2024-03-02T09:56:01.775Z,46.52
2024-03-02T09:58:28.422Z,46.11
2024-03-02T10:00:55.024Z,45.69
2024-03-02T10:03:24.217Z,45.08
2024-03-02T10:05:50.614Z,46.67
2024-03-02T10:08:16.984Z,45.22
2024-03-02T10:10:44.576Z,44.63
2024-03-02T10:13:12.315Z,45.61
2024-03-02T10:15:41.745Z,46.01
2024-03-02T10:18:17.153Z,46.39
2024-03-02T10:20:43.568Z,44.97
2024-03-02T10:23:18.316Z,44.73
2024-03-02T10:25:52.056Z,44.15
2024-03-02T10:28:24.380Z,44.39
2024-03-02T10:30:52.435Z,43.44
2024-03-02T10:33:19.120Z,43.15
2024-03-02T10:35:45.706Z,43.67
2024-03-02T10:38:12.461Z,44.10
2024-03-02T10:40:38.977Z,44.44
2024-03-02T10:43:07.001Z,43.17
2024-03-02T10:45:33.697Z,43.58
2024-03-02T10:48:02.749Z,42.80
2024-03-02T10:50:29.872Z,43.26
2024-03-02T10:52:56.391Z,43.37
2024-03-02T10:55:22.993Z,43.14
2024-03-02T10:57:55.061Z,42.99
2024-03-02T11:00:27.875Z,42.24
2024-03-02T11:03:03.012Z,42.15
2024-03-02T11:05:35.243Z,42.77
2024-03-02T11:08:06.546Z,42.15
2024-03-02T11:10:38.359Z,43.37
2024-03-02T11:13:12.421Z,42.55
2024-03-02T11:15:41.292Z,42.33
2024-03-02T11:18:10.098Z,42.78
2024-03-02T11:20:41.165Z,43.29
2024-03-02T11:23:08.936Z,43.36
2024-03-02T11:25:36.437Z,43.88
2024-03-02T11:28:04.619Z,43.58
2024-03-02T11:30:34.938Z,44.24
2024-03-02T11:33:13.079Z,43.45
2024-03-02T11:35:47.820Z,43.24
2024-03-02T11:38:14.284Z,44.02
2024-03-02T11:40:41.803Z,43.08
2024-03-02T11:43:11.845Z,42.87
2024-03-02T11:45:44.205Z,43.13
2024-03-02T11:48:14.663Z,41.81
2024-03-02T11:50:49.890Z,41.39
2024-03-02T11:53:17.066Z,41.81
2024-03-02T11:55:47.377Z,42.78
2024-03-02T11:58:14.659Z,42.59
2024-03-02T12:00:41.137Z,42.27
2024-03-02T12:03:13.890Z,42.33
2024-03-02T12:05:40.473Z,41.94
2024-03-02T12:08:08.179Z,43.68
2024-03-02T12:10:36.148Z,42.87
2024-03-02T12:13:12.203Z,42.19
2024-03-02T12:15:40.154Z,42.84
2024-03-02T12:18:07.379Z,42.26
2024-03-02T12:20:34.959Z,41.55
2024-03-02T12:23:06.644Z,40.69
2024-03-02T12:25:36.619Z,40.77
2024-03-02T12:28:03.920Z,40.74
2024-03-02T12:30:31.678Z,41.67
2024-03-02T12:32:58.159Z,40.20
2024-03-02T12:35:25.899Z,40.35
2024-03-02T12:40:45.527Z,40.14
2024-03-02T12:43:12.098Z,40.33
2024-03-02T12:45:38.638Z,39.76
2024-03-02T12:48:06.131Z,37.95
2024-03-02T12:50:34.704Z,37.97
2024-03-02T12:53:01.165Z,38.67
2024-03-02T12:55:29.796Z,37.38
2024-03-02T12:57:56.320Z,37.62
2024-03-02T13:00:23.726Z,38.15
2024-03-02T13:02:51.632Z,38.70
2024-03-02T13:05:18.208Z,38.87
2024-03-02T13:07:46.213Z,38.67
2024-03-02T13:10:13.748Z,39.79
2024-03-02T13:12:40.584Z,40.13
2024-03-02T13:15:07.241Z,39.96
2024-03-02T13:17:37.800Z,40.72
2024-03-02T13:20:09.278Z,39.79
2024-03-02T13:22:36.162Z,41.05
2024-03-02T13:25:05.123Z,40.48
2024-03-02T13:27:33.173Z,40.43
2024-03-02T13:29:59.852Z,40.39
2024-03-02T13:32:26.891Z,39.97
2024-03-02T13:34:53.577Z,40.79
2024-03-02T13:37:24.076Z,40.05
2024-03-02T13:39:50.757Z,38.76
2024-03-02T13:42:17.517Z,39.58
2024-03-02T13:44:48.495Z,38.33
2024-03-02T13:47:15.222Z,39.07
2024-03-02T13:49:44.930Z,38.19
2024-03-02T13:52:14.106Z,38.61
2024-03-02T13:54:48.150Z,37.31
2024-03-02T13:57:14.934Z,36.70
2024-03-02T13:59:43.488Z,37.74
2024-03-02T14:02:10.499Z,37.86
2024-03-02T14:04:37.743Z,36.90
2024-03-02T14:07:04.880Z,37.27
2024-03-02T14:09:31.571Z,37.71
2024-03-02T14:11:58.323Z,37.98
2024-03-02T14:14:25.264Z,38.83
2024-03-02T14:16:51.844Z,39.05
2024-03-02T14:19:18.519Z,39.09
2024-03-02T14:21:45.001Z,39.26
2024-03-02T14:24:11.418Z,38.73
2024-03-02T14:26:38.260Z,38.94
2024-03-02T14:29:05.135Z,39.52
2024-03-02T14:31:34.465Z,39.61
2024-03-02T14:34:01.169Z,39.72
2024-03-02T14:36:29.188Z,40.47
2024-03-02T14:38:56.303Z,40.43
2024-03-02T14:41:24.213Z,39.74
2024-03-02T14:43:50.754Z,40.05
2024-03-02T14:46:17.840Z,39.51
2024-03-02T14:48:44.835Z,40.28
2024-03-02T14:51:11.650Z,40.14
2024-03-02T14:53:38.975Z,39.70
2024-03-02T14:56:06.542Z,39.50
2024-03-02T14:58:32.942Z,40.23
2024-03-02T15:00:59.476Z,39.54
2024-03-02T15:03:25.990Z,40.15
2024-03-02T15:05:52.836Z,39.50
2024-03-02T15:08:19.248Z,39.77
2024-03-02T15:10:46.086Z,39.84
2024-03-02T15:13:12.780Z,40.13
2024-03-02T15:15:39.230Z,39.74
2024-03-02T15:18:06.859Z,39.93
2024-03-02T15:20:33.511Z,39.91
2024-03-02T15:23:00.281Z,39.95
2024-03-02T15:25:26.654Z,39.46
2024-03-02T15:27:53.102Z,40.09
2024-03-02T15:30:19.461Z,40.38
2024-03-02T15:32:45.885Z,40.08
2024-03-02T15:35:12.273Z,40.63
2024-03-02T15:37:38.659Z,40.55
2024-03-02T15:40:09.559Z,40.75
2024-03-02T15:42:36.322Z,40.30
2024-03-02T15:45:03.286Z,40.31
2024-03-02T15:47:29.987Z,40.23
2024-03-02T15:49:56.497Z,40.21
2024-03-02T15:52:23.345Z,40.10
2024-03-02T15:54:51.266Z,39.92
2024-03-02T15:57:17.986Z,40.24
2024-03-02T15:59:45.102Z,39.85
2024-03-02T16:02:11.611Z,39.80
2024-03-02T16:04:38.289Z,40.50
2024-03-02T16:07:04.900Z,40.16
2024-03-02T16:09:31.415Z,39.85
2024-03-02T16:11:57.934Z,39.83
2024-03-02T16:14:24.501Z,39.45
2024-03-02T16:16:50.978Z,39.63
2024-03-02T16:19:25.533Z,39.48
2024-03-02T16:22:01.909Z,39.27
2024-03-02T16:24:28.605Z,39.99
2024-03-02T16:26:55.075Z,39.64
2024-03-02T16:29:21.467Z,40.03
2024-03-02T16:31:47.851Z,39.85
2024-03-02T16:34:14.421Z,39.72
2024-03-02T16:36:41.936Z,39.23
2024-03-02T16:39:09.797Z,39.41
2024-03-02T16:41:36.360Z,39.70
2024-03-02T16:44:04.614Z,40.04
2024-03-02T16:46:32.763Z,39.51
2024-03-02T16:48:59.335Z,39.54
2024-03-02T16:51:28.789Z,39.10
2024-03-02T16:53:55.417Z,39.99
2024-03-02T16:56:21.868Z,40.22
2024-03-02T16:58:48.274Z,39.79
2024-03-02T17:01:14.722Z,39.19
2024-03-02T17:03:41.215Z,39.78
2024-03-02T17:06:07.624Z,39.46
2024-03-02T17:08:34.130Z,39.59
2024-03-02T17:11:00.649Z,40.11
2024-03-02T17:13:27.223Z,39.40
2024-03-02T17:15:53.624Z,39.32
2024-03-02T17:18:20.065Z,39.34
2024-03-02T17:20:46.470Z,39.49
2024-03-02T17:23:12.946Z,40.19
2024-03-02T17:25:39.401Z,40.03
2024-03-02T17:28:22.853Z,39.20
2024-03-02T17:30:49.430Z,40.09
2024-03-02T17:33:16.068Z,39.25
2024-03-02T17:35:42.506Z,39.56
2024-03-02T17:38:08.888Z,40.21
2024-03-02T17:40:35.233Z,39.89
2024-03-02T17:43:01.755Z,40.30
2024-03-02T17:45:28.213Z,39.95
2024-03-02T17:47:54.668Z,40.19
2024-03-02T17:50:21.064Z,39.93
2024-03-02T17:52:48.630Z,39.84
2024-03-02T17:55:15.378Z,39.55
2024-03-02T17:57:41.770Z,39.42
2024-03-02T18:00:14.983Z,39.18
2024-03-02T18:02:41.869Z,39.39
2024-03-02T18:05:09.832Z,39.98
2024-03-02T18:07:37.485Z,39.56
2024-03-02T18:10:04.968Z,39.48
2024-03-02T18:12:31.505Z,39.92
2024-03-02T18:14:57.928Z,40.12
2024-03-02T18:17:24.457Z,39.91
2024-03-02T18:19:52.069Z,39.99
2024-03-02T18:22:19.199Z,40.02
2024-03-02T18:24:48.480Z,39.99
2024-03-02T18:27:14.937Z,40.67
2024-03-02T18:29:41.486Z,40.85
2024-03-02T18:32:07.865Z,40.26
2024-03-02T18:34:39.117Z,40.79
2024-03-02T18:37:07.615Z,41.27
2024-03-02T18:39:34.157Z,41.32
2024-03-02T18:42:00.637Z,41.54
2024-03-02T18:44:27.061Z,40.68
2024-03-02T18:46:53.475Z,41.43
2024-03-02T18:49:20.583Z,40.83
2024-03-02T18:51:46.990Z,40.77
2024-03-02T18:54:13.730Z,41.16
2024-03-02T18:56:40.640Z,41.35
2024-03-02T18:59:07.110Z,41.55
2024-03-02T19:01:33.698Z,41.30
2024-03-02T19:04:00.342Z,41.92
2024-03-02T19:06:26.925Z,41.97
2024-03-02T19:08:53.333Z,42.19
2024-03-02T19:11:19.858Z,42.26
2024-03-02T19:13:46.377Z,42.26
2024-03-02T19:16:13.816Z,42.03
2024-03-02T19:18:41.013Z,42.75
2024-03-02T19:21:10.541Z,42.43
2024-03-02T19:23:43.399Z,42.28
2024-03-02T19:26:17.090Z,42.85
2024-03-02T19:28:43.521Z,42.68
2024-03-02T19:31:09.945Z,42.34
2024-03-02T19:33:36.405Z,42.37
2024-03-02T19:36:04.266Z,42.35
2024-03-02T19:38:30.958Z,42.16
2024-03-02T19:40:57.397Z,42.37
2024-03-02T19:43:23.802Z,42.63
2024-03-02T19:45:50.347Z,43.08
2024-03-02T19:48:18.249Z,43.04
2024-03-02T19:50:44.900Z,43.45
2024-03-02T19:53:11.286Z,43.47
2024-03-02T19:55:42.219Z,43.98
2024-03-02T19:58:08.639Z,44.20
2024-03-02T20:00:35.054Z,44.76
2024-03-02T20:03:01.461Z,44.91
2024-03-02T20:05:27.912Z,45.18
2024-03-02T20:07:54.275Z,44.46
2024-03-02T20:10:21.251Z,43.92
2024-03-02T20:12:47.755Z,44.03
2024-03-02T20:15:14.241Z,44.38
2024-03-02T20:17:40.702Z,44.66
2024-03-02T20:20:09.864Z,44.54
2024-03-02T20:22:36.419Z,44.71
2024-03-02T20:25:03.366Z,45.09
2024-03-02T20:27:29.769Z,45.79
2024-03-02T20:29:56.193Z,45.57
2024-03-02T20:32:22.580Z,45.34
2024-03-02T20:34:49.373Z,45.00
2024-03-02T20:37:15.845Z,44.42
2024-03-02T20:39:42.327Z,45.60
2024-03-02T20:42:08.694Z,45.36
2024-03-02T20:44:35.150Z,45.54
2024-03-02T20:47:01.510Z,45.06
2024-03-02T20:49:31.041Z,45.32
2024-03-02T20:51:58.628Z,45.28
2024-03-02T20:54:25.144Z,44.84
2024-03-02T20:56:52.922Z,45.62
2024-03-02T20:59:19.436Z,45.31
2024-03-02T21:01:48.725Z,45.68
2024-03-02T21:04:15.841Z,45.57
2024-03-02T21:06:42.969Z,46.57
2024-03-02T21:09:09.897Z,46.56
2024-03-02T21:11:39.004Z,46.06
2024-03-02T21:14:05.663Z,46.30
2024-03-02T21:16:32.042Z,45.96
2024-03-02T21:18:58.401Z,46.84
2024-03-02T21:21:24.778Z,46.17
2024-03-02T21:23:51.421Z,46.20
2024-03-02T21:26:17.808Z,45.95
2024-03-02T21:28:44.204Z,46.70
2024-03-02T21:31:16.318Z,46.20
2024-03-02T21:33:43.227Z,46.28
2024-03-02T21:36:09.634Z,46.97
2024-03-02T21:38:36.061Z,45.72
2024-03-02T21:41:02.628Z,45.93
2024-03-02T21:43:29.025Z,46.89
2024-03-02T21:45:55.486Z,46.28
2024-03-02T21:48:23.191Z,46.47
2024-03-02T21:50:49.550Z,46.38
2024-03-02T21:53:16.547Z,46.50
2024-03-02T21:55:44.052Z,46.81
2024-03-02T21:58:10.506Z,47.08
2024-03-02T22:00:37.134Z,47.10
2024-03-02T22:03:04.261Z,47.36
2024-03-02T22:05:30.736Z,46.69
2024-03-02T22:07:57.190Z,47.26
2024-03-02T22:10:23.745Z,46.93
2024-03-02T22:12:50.141Z,47.23
2024-03-02T22:15:16.516Z,47.55
2024-03-02T22:17:42.919Z,47.48
2024-03-02T22:20:11.685Z,48.37
2024-03-02T22:22:40.389Z,48.60
2024-03-02T22:25:07.880Z,48.97
2024-03-02T22:27:37.457Z,48.11
2024-03-02T22:30:06.289Z,48.07
2024-03-02T22:32:32.706Z,48.35
2024-03-02T22:34:59.116Z,48.26
2024-03-02T22:37:25.487Z,48.47
2024-03-02T22:39:51.889Z,49.02
2024-03-02T22:42:18.246Z,47.29
2024-03-02T22:44:44.619Z,47.39
2024-03-02T22:47:12.844Z,47.80
2024-03-02T22:49:40.133Z,47.18
2024-03-02T22:52:06.716Z,47.19
2024-03-02T22:54:33.162Z,46.92
2024-03-02T22:56:59.921Z,47.60
2024-03-02T22:59:26.320Z,47.57
2024-03-02T23:01:52.851Z,47.90
2024-03-02T23:04:19.382Z,47.74
2024-03-02T23:06:45.939Z,47.63
2024-03-02T23:09:12.700Z,48.11
2024-03-02T23:11:39.862Z,48.12
2024-03-02T23:14:06.290Z,47.46
2024-03-02T23:16:35.713Z,47.66
2024-03-02T23:19:02.836Z,47.45
2024-03-02T23:21:29.320Z,47.47
2024-03-02T23:23:55.766Z,47.19
2024-03-02T23:26:23.380Z,46.73
2024-03-02T23:28:49.746Z,46.94
2024-03-02T23:31:16.770Z,47.16
2024-03-02T23:33:43.262Z,46.62
2024-03-02T23:36:09.651Z,46.81
2024-03-02T23:38:36.061Z,46.71
2024-03-02T23:41:08.315Z,46.39
2024-03-02T23:43:38.364Z,46.67
2024-03-02T23:46:06.125Z,46.67
2024-03-02T23:48:32.529Z,46.48
2024-03-02T23:50:58.913Z,46.85
2024-03-02T23:53:25.317Z,46.65
2024-03-02T23:55:52.989Z,47.26
2024-03-02T23:58:20.228Z,47.37
